createdAt,value
2019-05-17T00:00:18.225Z,13.92
2019-05-17T00:01:52.540Z,13.92
2019-05-17T00:03:27.318Z,13.93
2019-05-17T00:05:02.109Z,13.95
2019-05-17T00:06:37.006Z,13.95
2019-05-17T00:08:11.555Z,13.96
2019-05-17T00:09:47.851Z,13.95
2019-05-17T00:11:22.509Z,13.94
2019-05-17T00:12:57.277Z,13.92
2019-05-17T00:14:31.600Z,13.91
2019-05-17T00:16:07.212Z,13.88
2019-05-17T00:17:42.790Z,13.86
2019-05-17T00:19:17.548Z,13.87
2019-05-17T00:20:51.817Z,13.89
2019-05-17T00:22:27.022Z,13.91
2019-05-17T00:24:01.814Z,13.91
2019-05-17T00:25:37.018Z,13.92
2019-05-17T00:27:12.012Z,13.91
2019-05-17T00:28:47.009Z,13.93
2019-05-17T00:30:21.816Z,13.94
2019-05-17T00:31:56.893Z,13.97
2019-05-17T00:33:31.212Z,13.99
2019-05-17T00:35:07.988Z,13.99
2019-05-17T00:36:42.440Z,13.99
2019-05-17T00:38:17.276Z,14.01
2019-05-17T00:39:51.489Z,14.03
2019-05-17T00:41:27.110Z,14.04
2019-05-17T00:43:01.640Z,14.04
2019-05-17T00:44:36.735Z,14.04
2019-05-17T00:46:11.221Z,14.05
2019-05-17T00:47:46.812Z,14.07
2019-05-17T00:49:21.947Z,14.09
2019-05-17T00:51:02.230Z,14.11
2019-05-17T00:52:32.665Z,14.10
2019-05-17T00:54:07.489Z,14.10
2019-05-17T00:55:41.953Z,14.11
2019-05-17T00:57:16.776Z,14.12
2019-05-17T00:58:50.934Z,14.12
2019-05-17T01:00:27.836Z,14.11
2019-05-17T01:02:02.087Z,14.12
2019-05-17T01:03:36.965Z,14.14
2019-05-17T01:05:11.412Z,14.14
2019-05-17T01:06:46.837Z,14.14
2019-05-17T01:08:21.481Z,14.16
2019-05-17T01:09:56.779Z,14.19
2019-05-17T01:11:31.080Z,14.19
2019-05-17T01:13:06.924Z,14.20
2019-05-17T01:14:41.985Z,14.18
2019-05-17T01:16:16.765Z,14.18
2019-05-17T01:17:51.016Z,14.20
2019-05-17T01:19:27.036Z,14.20
2019-05-17T01:21:02.405Z,14.21
2019-05-17T01:22:37.242Z,14.23
2019-05-17T01:24:11.493Z,14.24
2019-05-17T01:25:48.029Z,14.27
2019-05-17T01:27:22.713Z,14.26
2019-05-17T01:28:57.545Z,14.27
2019-05-17T01:30:31.832Z,14.28
2019-05-17T01:32:06.945Z,14.30
2019-05-17T01:33:41.905Z,14.32
2019-05-17T01:35:17.050Z,14.32
2019-05-17T01:36:51.294Z,14.32
2019-05-17T01:38:26.919Z,14.32
2019-05-17T01:40:02.125Z,14.33
2019-05-17T01:41:37.292Z,14.33
2019-05-17T01:43:12.164Z,14.34
2019-05-17T01:44:47.343Z,14.35
2019-05-17T01:46:22.125Z,14.35
2019-05-17T01:47:56.894Z,14.36
2019-05-17T01:49:31.104Z,14.36
2019-05-17T01:51:07.513Z,14.35
2019-05-17T01:52:42.338Z,14.36
2019-05-17T01:54:17.679Z,14.38
2019-05-17T01:55:52.204Z,14.38
2019-05-17T01:57:27.422Z,14.39
2019-05-17T01:59:02.977Z,14.40
2019-05-17T02:00:37.953Z,14.40
2019-05-17T02:02:16.749Z,14.39
2019-05-17T02:03:51.290Z,14.39
2019-05-17T02:05:27.400Z,14.37
2019-05-17T02:07:02.302Z,14.36
2019-05-17T02:08:37.186Z,14.36
2019-05-17T02:10:16.542Z,14.36
2019-05-17T02:11:50.874Z,14.37
2019-05-17T02:13:26.774Z,14.40
2019-05-17T02:15:01.858Z,14.40
2019-05-17T02:16:37.630Z,14.39
2019-05-17T02:18:12.819Z,14.39
2019-05-17T02:19:47.592Z,14.39
2019-05-17T02:21:21.809Z,14.37
2019-05-17T02:22:57.361Z,14.39
2019-05-17T02:24:31.911Z,14.37
2019-05-17T02:26:06.914Z,14.38
2019-05-17T02:27:44.633Z,14.38
2019-05-17T02:29:18.476Z,14.38
2019-05-17T02:30:53.864Z,14.39
2019-05-17T02:32:28.764Z,14.39
2019-05-17T02:34:03.568Z,14.39
2019-05-17T02:35:38.332Z,14.39
2019-05-17T02:37:13.616Z,14.38
2019-05-17T02:38:48.520Z,14.40
2019-05-17T02:40:22.836Z,14.39
2019-05-17T02:41:57.568Z,14.37
2019-05-17T02:43:33.444Z,14.35
2019-05-17T02:45:09.467Z,14.34
2019-05-17T02:46:44.020Z,14.34
2019-05-17T02:48:18.816Z,14.32
2019-05-17T02:49:53.513Z,14.29
2019-05-17T02:51:28.316Z,14.26
2019-05-17T02:53:04.759Z,14.24
2019-05-17T02:54:39.748Z,14.24
2019-05-17T02:56:14.321Z,14.24
2019-05-17T02:57:49.089Z,14.23
2019-05-17T02:59:23.461Z,14.24
2019-05-17T03:00:58.205Z,14.24
2019-05-17T03:02:34.086Z,14.25
2019-05-17T03:04:09.279Z,14.25
2019-05-17T03:05:43.340Z,14.33
2019-05-17T03:07:18.161Z,14.34
2019-05-17T03:08:52.640Z,14.32
2019-05-17T03:10:28.923Z,14.32
2019-05-17T03:12:03.879Z,14.35
2019-05-17T03:13:38.936Z,14.35
2019-05-17T03:15:14.299Z,14.36
2019-05-17T03:16:48.810Z,14.34
2019-05-17T03:18:23.258Z,14.35
2019-05-17T03:19:58.103Z,14.34
2019-05-17T03:21:33.769Z,14.32
2019-05-17T03:23:09.075Z,14.30
2019-05-17T03:24:43.865Z,14.29
2019-05-17T03:26:18.869Z,14.27
2019-05-17T03:27:53.771Z,14.27
2019-05-17T03:29:28.726Z,14.27
2019-05-17T03:31:07.955Z,14.28
2019-05-17T03:32:47.286Z,14.27
2019-05-17T03:34:18.039Z,14.24
2019-05-17T03:35:56.608Z,14.24
2019-05-17T03:37:36.695Z,14.25
2019-05-17T03:39:08.193Z,14.25
2019-05-17T03:41:11.847Z,14.25
2019-05-17T03:42:19.002Z,14.23
2019-05-17T03:43:53.497Z,14.24
2019-05-17T03:45:28.312Z,14.24
2019-05-17T03:47:03.198Z,14.25
2019-05-17T03:48:38.765Z,14.25
2019-05-17T03:50:13.593Z,14.27
2019-05-17T03:51:48.963Z,14.29
2019-05-17T03:53:23.390Z,14.30
2019-05-17T03:54:58.209Z,14.33
2019-05-17T03:56:33.122Z,14.34
2019-05-17T03:58:08.144Z,14.37
2019-05-17T03:59:43.072Z,14.38
2019-05-17T04:01:18.361Z,14.39
2019-05-17T04:02:53.745Z,14.40
2019-05-17T04:04:29.017Z,14.39
2019-05-17T04:06:04.067Z,14.39
2019-05-17T04:07:39.249Z,14.38
2019-05-17T04:09:14.154Z,14.37
2019-05-17T04:10:49.084Z,14.39
2019-05-17T04:12:23.845Z,14.39
2019-05-17T04:13:58.722Z,14.39
2019-05-17T04:15:33.205Z,14.42
2019-05-17T04:17:08.236Z,14.44
2019-05-17T04:18:43.807Z,14.42
2019-05-17T04:20:18.786Z,14.41
2019-05-17T04:21:53.735Z,14.36
2019-05-17T04:23:28.784Z,14.34
2019-05-17T04:25:03.487Z,14.35
2019-05-17T04:26:38.305Z,14.36
2019-05-17T04:28:13.657Z,14.38
2019-05-17T04:29:48.789Z,14.39
2019-05-17T04:31:23.344Z,14.41
2019-05-17T04:32:58.170Z,14.44
2019-05-17T04:34:33.546Z,14.42
2019-05-17T04:36:12.905Z,14.42
2019-05-17T04:37:45.583Z,14.39
2019-05-17T04:39:22.577Z,14.39
2019-05-17T04:40:56.284Z,14.38
2019-05-17T04:42:33.110Z,14.38
2019-05-17T04:44:07.026Z,14.38
2019-05-17T04:45:42.814Z,14.43
2019-05-17T04:47:17.125Z,14.46
2019-05-17T04:48:53.575Z,14.46
2019-05-17T04:50:27.980Z,14.47
2019-05-17T04:52:03.731Z,14.48
2019-05-17T04:53:38.101Z,14.43
2019-05-17T04:55:14.070Z,14.43
2019-05-17T04:56:48.912Z,14.41
2019-05-17T04:58:23.705Z,14.44
2019-05-17T04:59:57.913Z,14.45
2019-05-17T05:01:33.381Z,14.48
2019-05-17T05:03:12.458Z,14.49
2019-05-17T05:04:45.545Z,14.46
2019-05-17T05:06:23.149Z,14.47
2019-05-17T05:07:56.477Z,14.49
2019-05-17T05:09:32.311Z,14.51
2019-05-17T05:11:07.357Z,14.55
2019-05-17T05:12:43.641Z,14.57
2019-05-17T05:14:18.156Z,14.62
2019-05-17T05:15:52.732Z,14.68
2019-05-17T05:17:28.980Z,14.73
2019-05-17T05:19:03.252Z,14.76
2019-05-17T05:20:38.108Z,14.78
2019-05-17T05:22:13.549Z,14.78
2019-05-17T05:23:49.158Z,14.78
2019-05-17T05:25:23.453Z,14.77
2019-05-17T05:26:58.288Z,14.77
2019-05-17T05:28:32.844Z,14.79
2019-05-17T05:30:08.185Z,14.82
2019-05-17T05:31:42.851Z,14.85
2019-05-17T05:33:17.800Z,14.89
2019-05-17T05:34:52.313Z,14.88
2019-05-17T05:36:27.142Z,14.89
2019-05-17T05:38:02.204Z,14.93
2019-05-17T05:39:37.469Z,14.96
2019-05-17T05:41:12.280Z,14.98
2019-05-17T05:42:47.324Z,15.00
2019-05-17T05:44:21.593Z,15.00
2019-05-17T05:45:56.359Z,15.04
2019-05-17T05:47:32.380Z,15.07
2019-05-17T05:49:07.526Z,15.10
2019-05-17T05:50:43.121Z,15.13
2019-05-17T05:52:18.436Z,15.14
2019-05-17T14:31:18.907Z,22.15
2019-05-17T14:32:54.761Z,22.23
2019-05-17T14:34:30.315Z,22.26
2019-05-17T14:36:05.113Z,22.31
2019-05-17T14:37:39.318Z,22.30
2019-05-17T14:39:14.074Z,22.33
2019-05-17T14:41:05.682Z,22.31
2019-05-17T14:42:24.924Z,22.29
2019-05-17T14:43:59.199Z,22.30
2019-05-17T14:45:33.962Z,22.25
2019-05-17T14:47:08.482Z,22.17
2019-05-17T14:48:43.297Z,22.00
2019-05-17T14:50:19.643Z,21.93
2019-05-17T14:51:54.408Z,21.86
2019-05-17T14:53:28.909Z,21.93
2019-05-17T14:55:03.718Z,22.02
2019-05-17T14:56:39.577Z,22.16
2019-05-17T14:58:14.350Z,22.28
2019-05-17T14:59:48.811Z,22.40
2019-05-17T15:01:23.379Z,22.42
2019-05-17T15:02:57.584Z,22.44
2019-05-17T15:04:32.411Z,22.50
2019-05-17T15:06:07.161Z,22.58
2019-05-17T15:07:41.945Z,22.64
2019-05-17T15:09:16.211Z,22.69
2019-05-17T15:10:50.993Z,22.72
2019-05-17T15:12:28.697Z,22.78
2019-05-17T15:14:01.901Z,22.82
2019-05-17T15:15:36.123Z,22.72
2019-05-17T15:17:12.856Z,22.66
2019-05-17T15:18:47.184Z,22.60
2019-05-17T15:20:21.989Z,22.44
2019-05-17T15:21:56.197Z,22.41
2019-05-17T15:23:31.037Z,22.42
2019-05-17T15:25:05.966Z,22.31
2019-05-17T15:26:40.866Z,22.18
2019-05-17T15:28:15.147Z,22.03
2019-05-17T15:29:49.991Z,22.05
2019-05-17T15:31:24.658Z,22.07
2019-05-17T15:32:59.529Z,22.10
2019-05-17T15:34:33.774Z,22.10
2019-05-17T15:36:09.051Z,22.11
2019-05-17T15:37:43.449Z,22.11
2019-05-17T15:39:18.216Z,22.17
2019-05-17T15:40:53.900Z,22.18
2019-05-17T15:42:43.233Z,22.17
2019-05-17T15:44:04.765Z,22.11
2019-05-17T15:45:39.521Z,22.08
2019-05-17T15:47:13.735Z,22.06
2019-05-17T15:48:48.608Z,22.09
2019-05-17T15:50:23.345Z,22.08
2019-05-17T15:51:58.496Z,21.92
2019-05-17T15:53:32.807Z,21.74
2019-05-17T15:55:08.746Z,21.65
2019-05-17T15:56:43.257Z,21.56
2019-05-17T15:58:18.030Z,21.49
2019-05-17T15:59:52.316Z,21.44
2019-05-17T16:01:27.166Z,21.40
2019-05-17T16:03:02.041Z,21.35
2019-05-17T16:04:36.809Z,21.27
2019-05-17T16:06:11.330Z,21.20
2019-05-17T16:07:46.452Z,21.16
2019-05-17T16:09:21.334Z,21.13
2019-05-17T16:10:56.148Z,21.09
2019-05-17T16:12:30.464Z,21.04
2019-05-17T16:14:05.223Z,21.03
2019-05-17T16:15:39.803Z,21.02
2019-05-17T16:17:14.626Z,20.98
2019-05-17T16:18:48.844Z,20.94
2019-05-17T16:20:23.632Z,20.96
2019-05-17T16:21:58.281Z,20.96
2019-05-17T16:23:33.305Z,20.94
2019-05-17T16:25:07.916Z,20.94
2019-05-17T16:26:42.724Z,20.93
2019-05-17T16:28:17.443Z,20.94
2019-05-17T16:29:52.288Z,20.93
2019-05-17T16:31:26.516Z,20.91
2019-05-17T16:33:01.364Z,20.85
2019-05-17T16:34:36.063Z,20.81
2019-05-17T16:36:10.864Z,20.74
2019-05-17T16:37:45.148Z,20.70
2019-05-17T16:39:20.115Z,20.65
2019-05-17T16:40:54.819Z,20.61
2019-05-17T16:42:29.606Z,20.55
2019-05-17T16:44:04.206Z,20.53
2019-05-17T16:45:38.989Z,20.51
2019-05-17T16:47:13.714Z,20.47
2019-05-17T16:48:49.881Z,20.44
2019-05-17T16:50:24.116Z,20.37
2019-05-17T16:51:59.071Z,20.32
2019-05-17T16:53:33.540Z,20.24
2019-05-17T16:55:09.199Z,20.18
2019-05-17T16:56:45.129Z,20.14
2019-05-17T16:58:19.916Z,20.10
2019-05-17T16:59:54.302Z,20.07
2019-05-17T17:01:29.081Z,20.03
2019-05-17T17:03:04.683Z,19.99
2019-05-17T17:04:39.529Z,19.95
2019-05-17T17:06:14.046Z,19.94
2019-05-17T17:07:49.938Z,19.93
2019-05-17T17:09:24.274Z,19.93
2019-05-17T17:10:58.820Z,19.92
2019-05-17T17:12:33.533Z,19.91
2019-05-17T17:14:08.339Z,19.89
2019-05-17T17:15:42.644Z,19.84
2019-05-17T17:17:17.445Z,19.80
2019-05-17T17:18:52.101Z,19.78
2019-05-17T17:20:26.717Z,19.75
2019-05-17T17:22:00.936Z,19.71
2019-05-17T17:23:35.731Z,19.69
2019-05-17T17:25:10.686Z,19.65
2019-05-17T17:26:45.546Z,19.63
2019-05-17T17:28:24.977Z,19.61
2019-05-17T17:29:57.430Z,19.58
2019-05-17T17:31:32.414Z,19.58
2019-05-17T17:33:07.191Z,19.57
2019-05-17T17:34:41.409Z,19.54
2019-05-17T17:36:19.330Z,19.49
2019-05-17T17:37:52.441Z,19.42
2019-05-17T17:39:27.214Z,19.36
2019-05-17T17:41:05.745Z,19.32
2019-05-17T17:42:40.526Z,19.25
2019-05-17T17:44:16.653Z,19.20
2019-05-17T17:45:51.206Z,19.18
2019-05-17T17:47:25.520Z,19.16
2019-05-17T17:49:00.358Z,19.13
2019-05-17T17:50:34.816Z,19.12
2019-05-17T17:52:11.432Z,19.20
2019-05-17T17:53:45.790Z,19.17
2019-05-17T17:55:21.817Z,19.12
2019-05-17T17:56:56.788Z,19.09
2019-05-17T17:58:31.661Z,19.06
2019-05-17T18:00:07.960Z,19.04
2019-05-17T18:01:42.749Z,19.02
2019-05-17T18:03:17.299Z,19.02
2019-05-17T18:04:52.086Z,19.00
2019-05-17T18:06:26.438Z,19.00
2019-05-17T18:08:01.219Z,18.98
2019-05-17T18:09:35.661Z,18.98
2019-05-17T18:11:10.528Z,18.96
2019-05-17T18:12:44.780Z,18.94
2019-05-17T18:14:22.237Z,18.91
2019-05-17T18:15:56.797Z,18.89
2019-05-17T18:17:39.127Z,18.87
2019-05-17T18:19:09.620Z,18.83
2019-05-17T18:20:44.541Z,18.78
2019-05-17T18:22:21.150Z,18.75
2019-05-17T18:23:57.467Z,18.73
2019-05-17T18:25:31.798Z,18.73
2019-05-17T18:27:06.710Z,18.71
2019-05-17T18:28:41.373Z,18.69
2019-05-17T18:30:16.153Z,18.66
2019-05-17T18:31:50.494Z,18.63
2019-05-17T18:33:25.305Z,18.56
2019-05-17T18:35:00.413Z,18.51
2019-05-17T18:36:38.254Z,18.45
2019-05-17T18:38:11.085Z,18.43
2019-05-17T18:39:45.893Z,18.37
2019-05-17T18:41:21.756Z,18.36
2019-05-17T18:42:56.617Z,18.37
2019-05-17T18:44:30.960Z,18.36
2019-05-17T18:46:05.813Z,18.37
2019-05-17T18:47:40.426Z,18.39
2019-05-17T18:49:15.204Z,18.40
2019-05-17T18:50:49.477Z,18.40
2019-05-17T18:52:24.347Z,18.41
2019-05-17T18:53:59.099Z,18.43
2019-05-17T18:55:35.651Z,18.43
2019-05-17T18:57:09.925Z,18.43
2019-05-17T18:58:44.711Z,18.44
2019-05-17T19:00:19.853Z,18.44
2019-05-17T19:01:56.161Z,18.43
2019-05-17T19:03:30.444Z,18.41
2019-05-17T19:05:07.988Z,18.36
2019-05-17T19:06:42.416Z,18.32
2019-05-17T19:08:17.189Z,18.32
2019-05-17T19:09:51.410Z,18.32
2019-05-17T19:11:26.353Z,18.33
2019-05-17T19:13:02.302Z,18.33
2019-05-17T19:14:43.131Z,18.35
2019-05-17T19:16:13.025Z,18.37
2019-05-17T19:17:47.797Z,18.36
2019-05-17T19:19:22.765Z,18.35
2019-05-17T19:20:57.614Z,18.34
2019-05-17T19:22:31.836Z,18.34
2019-05-17T19:24:08.115Z,18.33
2019-05-17T19:25:42.738Z,18.32
2019-05-17T19:27:17.502Z,18.31
2019-05-17T19:28:51.749Z,18.28
2019-05-17T19:30:28.125Z,18.25
2019-05-17T19:32:02.750Z,18.24
2019-05-17T19:33:37.532Z,18.23
2019-05-17T19:35:13.062Z,18.22
2019-05-17T19:36:49.226Z,18.21
2019-05-17T19:38:23.553Z,18.22
2019-05-17T19:39:58.326Z,18.23
2019-05-17T19:41:32.555Z,18.21
2019-05-17T19:43:07.457Z,18.22
2019-05-17T19:44:41.940Z,18.22
2019-05-17T19:46:16.699Z,18.21
2019-05-17T19:47:50.925Z,18.21
2019-05-17T19:49:27.059Z,18.21
2019-05-17T19:51:01.596Z,18.20
2019-05-17T19:52:36.361Z,18.20
2019-05-17T19:54:10.629Z,18.20
2019-05-17T19:55:45.462Z,18.21
2019-05-17T19:57:20.017Z,18.21
2019-05-17T19:58:54.792Z,18.20
2019-05-17T20:00:29.016Z,18.17
2019-05-17T20:02:06.422Z,18.16
2019-05-17T20:03:40.222Z,18.16
2019-05-17T20:05:16.471Z,17.84
2019-05-17T20:06:50.680Z,18.14
2019-05-17T20:08:25.521Z,18.14
2019-05-17T20:10:00.332Z,18.15
2019-05-17T20:11:35.146Z,18.12
2019-05-17T20:13:09.417Z,18.10
2019-05-17T20:14:44.709Z,18.08
2019-05-17T20:16:20.853Z,18.07
2019-05-17T20:17:55.697Z,18.09
2019-05-17T20:19:29.953Z,18.08
2019-05-17T20:21:04.801Z,18.08
2019-05-17T20:22:44.542Z,18.08
2019-05-17T20:24:19.287Z,18.05
2019-05-17T20:25:53.561Z,18.04
2019-05-17T20:27:29.429Z,18.02
2019-05-17T20:29:03.754Z,18.00
2019-05-17T20:30:38.638Z,17.98
2019-05-17T20:32:12.885Z,17.98
2019-05-17T20:33:47.657Z,17.99
2019-05-17T20:35:22.319Z,18.00
2019-05-17T20:36:57.092Z,18.01
2019-05-17T20:38:31.348Z,18.02
2019-05-17T20:40:08.495Z,18.03
2019-05-17T20:41:42.889Z,18.03
2019-05-17T20:43:17.945Z,18.05
2019-05-17T20:44:55.144Z,18.04
2019-05-17T20:46:30.698Z,18.02
2019-05-17T20:48:05.047Z,18.01
2019-05-17T20:49:39.921Z,17.99
2019-05-17T20:51:14.141Z,17.98
2019-05-17T20:52:48.981Z,17.55
2019-05-17T20:54:23.363Z,17.96
2019-05-17T20:55:58.176Z,17.94
2019-05-17T20:57:32.393Z,17.91
2019-05-17T20:59:07.164Z,17.86
2019-05-17T21:00:41.840Z,17.81
2019-05-17T21:02:17.679Z,17.76
2019-05-17T21:03:51.878Z,17.69
2019-05-17T21:05:26.692Z,17.60
2019-05-17T21:07:01.435Z,17.54
2019-05-17T21:08:45.505Z,17.44
2019-05-17T21:10:12.676Z,17.35
2019-05-17T21:11:47.489Z,17.28
2019-05-17T21:13:23.955Z,17.22
2019-05-17T21:14:58.745Z,17.17
2019-05-17T21:16:32.977Z,17.07
2019-05-17T21:18:07.816Z,17.02
2019-05-17T21:19:42.474Z,16.95
2019-05-17T21:21:17.253Z,16.88
2019-05-17T21:22:51.484Z,16.82
2019-05-17T21:24:26.664Z,16.75
2019-05-17T21:26:01.066Z,16.68
2019-05-17T21:27:35.849Z,16.61
2019-05-17T21:29:10.076Z,16.57
2019-05-17T21:30:44.925Z,16.52
2019-05-17T21:32:19.934Z,16.45
2019-05-17T21:33:54.744Z,16.38
2019-05-17T21:35:29.017Z,16.32
2019-05-17T21:37:03.792Z,16.26
2019-05-17T21:38:38.397Z,16.23
2019-05-17T21:40:14.133Z,16.18
2019-05-17T21:41:48.389Z,16.14
2019-05-17T21:43:23.173Z,16.09
2019-05-17T21:44:57.597Z,16.06
2019-05-17T21:46:32.189Z,16.00
2019-05-17T21:48:06.816Z,15.98
2019-05-17T21:49:41.596Z,15.93
2019-05-17T21:51:16.376Z,15.89
2019-05-17T21:52:51.195Z,15.85
2019-05-17T21:54:25.427Z,15.81
2019-05-17T21:56:00.211Z,15.78
2019-05-17T21:57:34.846Z,15.73
2019-05-17T21:59:12.623Z,15.69
2019-05-17T22:01:03.470Z,15.68
2019-05-17T22:02:38.453Z,15.63
2019-05-17T22:04:12.755Z,15.59
2019-05-17T22:05:47.578Z,15.57
2019-05-17T22:07:21.863Z,15.53
2019-05-17T22:08:58.467Z,15.52
2019-05-17T22:10:32.702Z,15.50
2019-05-17T22:12:08.608Z,15.47
2019-05-17T22:13:42.920Z,15.45
2019-05-17T22:15:17.917Z,15.43
2019-05-17T22:16:52.115Z,15.41
2019-05-17T22:18:27.614Z,15.39
2019-05-17T22:20:01.840Z,15.35
2019-05-17T22:21:37.158Z,15.31
2019-05-17T22:23:11.421Z,15.28
2019-05-17T22:24:46.184Z,15.23
2019-05-17T22:26:20.398Z,15.19
2019-05-17T22:27:55.713Z,15.18
2019-05-17T22:29:29.985Z,15.15
2019-05-17T22:31:04.747Z,15.14
2019-05-17T22:32:39.040Z,15.09
2019-05-17T22:34:14.616Z,15.07
2019-05-17T22:35:48.876Z,15.04
2019-05-17T22:37:23.632Z,15.03
2019-05-17T22:38:59.083Z,15.02
2019-05-17T22:40:34.136Z,15.01
2019-05-17T22:42:08.405Z,15.00
2019-05-17T22:43:43.179Z,14.99
2019-05-17T22:45:17.389Z,14.99
2019-05-17T22:46:52.477Z,14.98
2019-05-17T22:48:28.163Z,15.00
2019-05-17T22:50:03.496Z,14.98
2019-05-17T22:51:37.712Z,14.95
2019-05-17T22:53:12.793Z,14.94
2019-05-17T22:54:47.008Z,14.91
2019-05-17T22:56:21.548Z,14.88
2019-05-17T22:57:55.804Z,14.86
2019-05-17T22:59:31.066Z,14.84
2019-05-17T23:01:05.279Z,14.80
2019-05-17T23:02:40.044Z,14.79
2019-05-17T23:04:14.309Z,14.77
2019-05-17T23:05:49.947Z,14.74
2019-05-17T23:07:24.148Z,14.71
2019-05-17T23:09:01.419Z,14.69
2019-05-17T23:10:37.146Z,14.66
2019-05-17T23:12:12.520Z,14.63
2019-05-17T23:13:46.740Z,14.61
2019-05-17T23:15:21.585Z,14.59
2019-05-17T23:16:56.040Z,14.58
2019-05-17T23:18:35.298Z,14.53
2019-05-17T23:20:10.297Z,14.52
2019-05-17T23:21:45.460Z,14.51
2019-05-17T23:23:19.721Z,14.49
2019-05-17T23:24:54.889Z,14.47
2019-05-17T23:26:29.111Z,14.46
2019-05-17T23:28:05.386Z,14.44
2019-05-17T23:29:41.207Z,14.43
2019-05-17T23:31:16.539Z,14.39
2019-05-17T23:32:50.857Z,14.37
2019-05-17T23:34:25.623Z,14.35
2019-05-17T23:35:59.837Z,14.35
2019-05-17T23:37:35.322Z,14.35
2019-05-17T23:39:09.579Z,14.32
2019-05-17T23:40:44.367Z,14.28
2019-05-17T23:42:18.600Z,14.19
2019-05-17T23:43:53.938Z,14.09
2019-05-17T23:45:28.237Z,14.02
2019-05-17T23:47:06.972Z,13.97
2019-05-17T23:48:38.994Z,13.93
2019-05-17T23:50:14.417Z,13.90
2019-05-17T23:51:48.713Z,13.86
2019-05-17T23:53:23.976Z,13.83
2019-05-17T23:54:58.184Z,13.79
2019-05-17T23:56:33.499Z,13.77
2019-05-17T23:58:07.712Z,13.76
2019-05-17T23:59:42.469Z,13.74
